Time;durP1;ratioP1;P1;durP2;ratioP2;P2;SDS_P1;SDS_P2;PMS_P1;PMS_P2;Temp;Humidity;BMP_temperature;BMP_pressure;BME280_temperature;BME280_humidity;BME280_pressure;Samples;Min_cycle;Max_cycle;Signal;HPM_P1;HPM_P2
2021/11/14 00:00:46;;;;;;;;;;;;;;;20.85;55.11;99832.94;2077315;28;20399;-65
2021/11/14 00:01:47;;;;;;;;;;;;;;;20.85;54.73;99828.34;2069087;28;19921;-64
2021/11/14 00:02:47;;;;;;;;;;;;;;;20.85;55.05;99825.59;2075715;28;19916;-64
2021/11/14 00:03:48;;;;;;;;;;;;;;;20.85;54.87;99821.97;2075707;28;20019;-62
2021/11/14 00:04:48;;;;;;;;;;;;;;;20.84;54.97;99821.13;2071770;28;20401;-63
2021/11/14 00:05:49;;;;;;;;;;;;;;;20.84;55.07;99826.63;2077580;28;19928;-64
2021/11/14 00:06:49;;;;;;;;;;;;;;;20.85;54.87;99819.25;2074735;28;20741;-63
2021/11/14 00:07:50;;;;;;;;;;;;;;;20.86;54.99;99824.56;2074025;28;19955;-63
2021/11/14 00:08:50;;;;;;;;;;;;;;;20.86;54.78;99813.59;2073455;28;19920;-63
2021/11/14 00:09:50;;;;;;;;;;;;;;;20.87;54.84;99815.34;2076545;28;20341;-63
2021/11/14 00:10:52;;;;;;;;;;;;;;;20.86;54.89;99819.09;2073014;28;20167;-63
2021/11/14 00:11:52;;;;;;;;;;;;;;;20.86;54.86;99819.09;2075056;28;19920;-63
2021/11/14 00:12:54;;;;;;;;;;;;;;;20.86;55.02;99819.09;2076083;28;19960;-63
2021/11/14 00:13:57;;;;;;;;;;;;;;;20.86;54.87;99821.81;2076016;28;19920;-63
2021/11/14 00:14:58;;;;;;;;;;;;;;;20.87;55.10;99822.69;2076370;28;19917;-63
2021/11/14 00:15:58;;;;;;;;;;;;;;;20.85;55.01;99814.66;2073674;28;19928;-63
2021/11/14 00:16:58;;;;;;;;;;;;;;;20.86;54.77;99810.88;2077146;28;20698;-63
2021/11/14 00:17:59;;;;;;;;;;;;;;;20.86;54.85;99810.88;2073016;28;20040;-64
2021/11/14 00:18:59;;;;;;;;;;;;;;;20.86;55.00;99810.03;2073427;28;20868;-63
2021/11/14 00:20:01;;;;;;;;;;;;;;;20.84;55.03;99815.66;2067976;28;19921;-63
2021/11/14 00:21:01;;;;;;;;;;;;;;;20.84;54.80;99810.19;2067889;28;20171;-63
2021/11/14 00:22:01;;;;;;;;;;;;;;;20.83;54.97;99808.47;2076112;28;19921;-63
2021/11/14 00:23:02;;;;;;;;;;;;;;;20.83;54.88;99813.97;2069146;28;20508;-63
2021/11/14 00:24:02;;;;;;;;;;;;;;;20.83;55.12;99813.09;2072208;28;19923;-63
2021/11/14 00:25:05;;;;;;;;;;;;;;;20.82;55.18;99806.75;2073525;28;20711;-63
2021/11/14 00:26:06;;;;;;;;;;;;;;;20.82;54.92;99809.47;2070362;28;19923;-63
2021/11/14 00:27:06;;;;;;;;;;;;;;;20.82;55.17;99812.22;2076405;28;19923;-63
2021/11/14 00:28:08;;;;;;;;;;;;;;;20.81;55.17;99807.78;2074424;28;19993;-63
2021/11/14 00:29:09;;;;;;;;;;;;;;;20.81;55.27;99812.41;2072067;28;19917;-63
2021/11/14 00:30:10;;;;;;;;;;;;;;;20.80;55.29;99803.34;2075346;28;19999;-63
2021/11/14 00:31:12;;;;;;;;;;;;;;;20.79;55.13;99801.59;2066350;28;19909;-63
2021/11/14 00:32:12;;;;;;;;;;;;;;;20.81;55.06;99802.31;2065731;28;19913;-63
2021/11/14 00:33:15;;;;;;;;;;;;;;;20.81;55.22;99802.31;2076807;28;20586;-63
2021/11/14 00:34:15;;;;;;;;;;;;;;;20.80;54.94;99802.47;2073290;28;19923;-63
2021/11/14 00:35:16;;;;;;;;;;;;;;;20.79;55.24;99796.13;2074349;28;19924;-63
2021/11/14 00:36:18;;;;;;;;;;;;;;;20.79;55.08;99798.88;2071523;28;20807;-63
2021/11/14 00:37:19;;;;;;;;;;;;;;;20.79;55.27;99801.59;2074110;28;19924;-63
2021/11/14 00:38:20;;;;;;;;;;;;;;;20.79;55.13;99798.88;2069151;28;19916;-63
2021/11/14 00:39:21;;;;;;;;;;;;;;;20.78;55.13;99794.44;2069209;28;20908;-63
2021/11/14 00:40:23;;;;;;;;;;;;;;;20.79;55.16;99798.03;2073568;28;20328;-64
2021/11/14 00:41:24;;;;;;;;;;;;;;;20.76;55.18;99791.84;2073273;28;19994;-64
2021/11/14 00:42:24;;;;;;;;;;;;;;;20.77;55.25;99799.06;2074461;28;19978;-64
2021/11/14 00:43:25;;;;;;;;;;;;;;;20.76;55.22;99797.31;2074329;28;19960;-64
2021/11/14 00:44:25;;;;;;;;;;;;;;;20.76;55.26;99796.47;2072051;28;19924;-64
2021/11/14 00:45:26;;;;;;;;;;;;;;;20.76;55.20;99791.00;2073321;28;20809;-64
2021/11/14 00:46:26;;;;;;;;;;;;;;;20.75;55.40;99789.28;2074584;28;20276;-63
2021/11/14 00:47:26;;;;;;;;;;;;;;;20.75;55.40;99800.25;2070453;28;20279;-64
2021/11/14 00:48:27;;;;;;;;;;;;;;;20.74;55.16;99793.03;2075008;28;19919;-64
2021/11/14 00:49:27;;;;;;;;;;;;;;;20.75;55.15;99795.63;2072300;28;20622;-64
2021/11/14 00:50:29;;;;;;;;;;;;;;;20.76;55.37;99796.47;2074097;28;19916;-64
2021/11/14 00:51:29;;;;;;;;;;;;;;;20.74;55.38;99793.03;2073396;28;19909;-64
2021/11/14 00:52:30;;;;;;;;;;;;;;;20.75;55.40;99800.25;2073088;28;19905;-63
2021/11/14 00:53:30;;;;;;;;;;;;;;;20.74;55.44;99793.03;2074502;28;19913;-64
2021/11/14 00:54:30;;;;;;;;;;;;;;;20.74;55.19;99799.38;2073109;28;20326;-64
2021/11/14 00:55:32;;;;;;;;;;;;;;;20.75;55.14;99794.78;2069643;28;20040;-64
2021/11/14 00:56:33;;;;;;;;;;;;;;;20.74;55.46;99798.53;2068095;28;19924;-63
2021/11/14 00:57:33;;;;;;;;;;;;;;;20.74;55.48;99790.31;2071915;28;20165;-64
2021/11/14 00:58:34;;;;;;;;;;;;;;;20.74;55.35;99799.38;2071691;28;19920;-64
2021/11/14 00:59:34;;;;;;;;;;;;;;;20.73;55.21;99797.66;2069763;28;20351;-64
2021/11/14 01:00:35;;;;;;;;;;;;;;;20.73;55.21;99794.06;2078823;28;19912;-64
2021/11/14 01:01:35;;;;;;;;;;;;;;;20.73;55.38;99802.28;2070500;28;20028;-64
2021/11/14 01:02:37;;;;;;;;;;;;;;;20.72;55.45;99795.94;2069388;28;19978;-64
2021/11/14 01:03:37;;;;;;;;;;;;;;;20.72;55.26;99800.56;2073396;28;19917;-64
2021/11/14 01:04:37;;;;;;;;;;;;;;;20.71;55.41;99788.75;2073837;28;19921;-63
2021/11/14 01:05:41;;;;;;;;;;;;;;;20.70;55.59;99792.53;2074916;28;19916;-64
2021/11/14 01:06:41;;;;;;;;;;;;;;;20.70;55.49;99789.78;2076177;28;20394;-64
2021/11/14 01:07:42;;;;;;;;;;;;;;;20.70;55.35;99787.06;2076809;28;19916;-63
2021/11/14 01:08:42;;;;;;;;;;;;;;;20.71;55.51;99787.91;2074159;28;19974;-64
2021/11/14 01:09:43;;;;;;;;;;;;;;;20.70;55.33;99797.13;2076463;28;20008;-63
2021/11/14 01:10:45;;;;;;;;;;;;;;;20.68;55.46;99791.00;2071089;28;19943;-63
2021/11/14 01:11:45;;;;;;;;;;;;;;;20.68;55.58;99788.25;2066105;28;20375;-63
2021/11/14 01:12:46;;;;;;;;;;;;;;;20.69;55.63;99789.94;2068388;28;20046;-63
2021/11/14 01:13:47;;;;;;;;;;;;;;;20.67;55.69;99792.84;2074812;28;19927;-64
2021/11/14 01:14:47;;;;;;;;;;;;;;;20.67;55.62;99781.03;2070246;28;20459;-63
2021/11/14 01:15:48;;;;;;;;;;;;;;;20.68;55.60;99782.78;2074763;28;19939;-63
2021/11/14 01:16:49;;;;;;;;;;;;;;;20.67;55.44;99786.53;2062885;28;19925;-63
2021/11/14 01:17:50;;;;;;;;;;;;;;;20.65;55.60;99783.97;2068093;28;19917;-63
2021/11/14 01:18:51;;;;;;;;;;;;;;;20.66;55.63;99782.94;2066058;28;19979;-63
2021/11/14 01:19:51;;;;;;;;;;;;;;;20.65;55.63;99783.97;2072512;28;20831;-63
2021/11/14 01:20:55;;;;;;;;;;;;;;;20.66;55.77;99782.06;2074642;28;20939;-63
2021/11/14 01:21:55;;;;;;;;;;;;;;;20.65;55.72;99780.34;2073034;28;19944;-64
2021/11/14 01:22:57;;;;;;;;;;;;;;;20.66;55.79;99784.81;2074020;28;19917;-64
2021/11/14 01:23:59;;;;;;;;;;;;;;;20.65;55.72;99777.59;2074812;28;20735;-63
2021/11/14 01:25:00;;;;;;;;;;;;;;;20.64;55.66;99778.66;2070407;28;19921;-63
2021/11/14 01:26:00;;;;;;;;;;;;;;;20.63;55.50;99780.53;2072659;28;19942;-63
2021/11/14 01:27:01;;;;;;;;;;;;;;;20.63;55.80;99780.53;2069664;28;19928;-63
2021/11/14 01:28:01;;;;;;;;;;;;;;;20.63;55.57;99787.88;2074630;28;19978;-63
2021/11/14 01:29:02;;;;;;;;;;;;;;;20.63;55.84;99790.59;2069924;28;20395;-63
2021/11/14 01:30:07;;;;;;;;;;;;;;;20.62;55.64;99787.00;2064821;28;20391;-64
2021/11/14 01:31:07;;;;;;;;;;;;;;;20.61;55.89;99782.56;2067266;28;19920;-63
2021/11/14 01:32:08;;;;;;;;;;;;;;;20.61;55.79;99789.94;2075394;28;19908;-63
2021/11/14 01:33:09;;;;;;;;;;;;;;;20.62;55.67;99780.69;2074526;28;19985;-64
2021/11/14 01:34:09;;;;;;;;;;;;;;;20.62;55.88;99788.91;2068914;28;19963;-64
2021/11/14 01:35:10;;;;;;;;;;;;;;;20.60;55.80;99786.31;2071826;28;19916;-64
2021/11/14 01:36:11;;;;;;;;;;;;;;;20.60;55.81;99786.31;2071388;28;20166;-64
2021/11/14 01:37:11;;;;;;;;;;;;;;;20.59;55.64;99790.09;2072687;28;19923;-65
2021/11/14 01:38:11;;;;;;;;;;;;;;;20.60;55.99;99788.22;2074748;28;19952;-62
2021/11/14 01:39:12;;;;;;;;;;;;;;;20.59;55.81;99787.34;2070946;28;19916;-63
2021/11/14 01:40:19;;;;;;;;;;;;;;;20.59;55.97;99786.50;2069980;28;20403;-63
2021/11/14 01:41:19;;;;;;;;;;;;;;;20.59;55.98;99789.25;2076728;28;19927;-63
2021/11/14 01:42:19;;;;;;;;;;;;;;;20.59;55.98;99779.16;2073412;28;19920;-63
2021/11/14 01:43:24;;;;;;;;;;;;;;;20.59;55.87;99783.78;2073467;28;19921;-63
2021/11/14 01:44:25;;;;;;;;;;;;;;;20.59;55.68;99783.78;2072970;28;20504;-64
2021/11/14 01:45:25;;;;;;;;;;;;;;;20.58;55.81;99788.41;2073388;28;19924;-63
2021/11/14 01:46:25;;;;;;;;;;;;;;;20.58;55.60;99785.66;2070302;28;19924;-63
2021/11/14 01:47:26;;;;;;;;;;;;;;;20.58;55.83;99782.03;2074060;28;19917;-63
2021/11/14 01:48:27;;;;;;;;;;;;;;;20.57;55.61;99785.81;2075415;28;19916;-63
2021/11/14 01:49:27;;;;;;;;;;;;;;;20.58;55.84;99787.50;2069099;28;19924;-63
2021/11/14 01:50:27;;;;;;;;;;;;;;;20.58;55.74;99787.50;2074755;28;19917;-63
2021/11/14 01:51:28;;;;;;;;;;;;;;;20.57;55.60;99785.81;2068463;28;20000;-63
2021/11/14 01:52:29;;;;;;;;;;;;;;;20.57;55.72;99785.81;2072428;28;19923;-64
2021/11/14 01:53:30;;;;;;;;;;;;;;;20.56;55.72;99784.97;2073859;28;19921;-63
2021/11/14 01:54:30;;;;;;;;;;;;;;;20.56;55.92;99787.69;2073261;28;19916;-66
2021/11/14 01:55:32;;;;;;;;;;;;;;;20.55;55.77;99784.13;2073060;28;19925;-63
2021/11/14 01:56:32;;;;;;;;;;;;;;;20.55;56.00;99784.13;2071128;28;19917;-63
2021/11/14 01:57:32;;;;;;;;;;;;;;;20.55;55.92;99789.59;2070979;28;19921;-64
2021/11/14 01:58:34;;;;;;;;;;;;;;;20.54;55.87;99785.09;2069881;28;19917;-64
2021/11/14 01:59:35;;;;;;;;;;;;;;;20.54;55.95;99787.81;2071906;28;20323;-64
2021/11/14 02:00:44;;;;;;;;;;;;;;;20.54;56.06;99786.97;2071774;28;20136;-64
2021/11/14 02:01:44;;;;;;;;;;;;;;;20.54;56.12;99781.50;2073381;28;19921;-64
2021/11/14 02:02:44;;;;;;;;;;;;;;;20.54;56.02;99782.34;2072602;28;19916;-64
2021/11/14 02:03:47;;;;;;;;;;;;;;;20.53;56.00;99775.16;2076301;28;19940;-63
2021/11/14 02:04:48;;;;;;;;;;;;;;;20.52;55.76;99778.91;2070734;28;20011;-64
2021/11/14 02:05:48;;;;;;;;;;;;;;;20.53;56.05;99780.66;2074660;28;19928;-64
2021/11/14 02:06:48;;;;;;;;;;;;;;;20.52;56.16;99778.91;2070097;28;19916;-64
2021/11/14 02:07:53;;;;;;;;;;;;;;;20.52;55.97;99778.91;2070803;28;19929;-64
2021/11/14 02:08:54;;;;;;;;;;;;;;;20.53;55.97;99786.13;2072558;28;19964;-64
2021/11/14 02:09:54;;;;;;;;;;;;;;;20.52;56.06;99780.81;2075478;28;19925;-62
2021/11/14 02:10:55;;;;;;;;;;;;;;;20.51;56.13;99781.84;2075083;28;19915;-63
2021/11/14 02:11:56;;;;;;;;;;;;;;;20.52;56.06;99773.44;2074519;28;19917;-64
2021/11/14 02:12:57;;;;;;;;;;;;;;;20.51;56.08;99777.22;2075368;28;19931;-63
2021/11/14 02:13:57;;;;;;;;;;;;;;;20.52;56.12;99778.06;2074036;28;20011;-64
2021/11/14 02:14:57;;;;;;;;;;;;;;;20.52;56.12;99778.06;2074764;28;20924;-64
2021/11/14 02:15:58;;;;;;;;;;;;;;;20.51;55.97;99781.84;2073229;28;19917;-63
2021/11/14 02:16:59;;;;;;;;;;;;;;;20.50;56.12;99767.25;2074012;28;19917;-64
2021/11/14 02:17:59;;;;;;;;;;;;;;;20.50;56.09;99772.75;2071353;28;19970;-64
2021/11/14 02:19:00;;;;;;;;;;;;;;;20.51;56.11;99771.75;2072031;28;19913;-64
2021/11/14 02:20:00;;;;;;;;;;;;;;;20.50;56.14;99775.47;2071764;28;19921;-64
2021/11/14 02:21:00;;;;;;;;;;;;;;;20.50;55.98;99771.88;2070524;28;19916;-64
2021/11/14 02:22:01;;;;;;;;;;;;;;;20.49;55.87;99767.47;2074201;28;19969;-63
2021/11/14 02:23:05;;;;;;;;;;;;;;;20.49;56.11;99768.31;2073492;28;19925;-64
2021/11/14 02:24:05;;;;;;;;;;;;;;;20.50;56.19;99769.16;2072354;28;19954;-64
2021/11/14 02:25:08;;;;;;;;;;;;;;;20.49;55.92;99772.94;2077744;28;19986;-64
2021/11/14 02:26:08;;;;;;;;;;;;;;;20.49;55.91;99768.31;2075950;28;20391;-64
2021/11/14 02:27:09;;;;;;;;;;;;;;;20.47;55.94;99764.88;2074813;28;19982;-64
2021/11/14 02:28:09;;;;;;;;;;;;;;;20.47;55.95;99770.34;2071709;28;19920;-64
2021/11/14 02:29:10;;;;;;;;;;;;;;;20.48;55.96;99771.19;2073635;28;19920;-64
2021/11/14 02:30:11;;;;;;;;;;;;;;;20.47;56.09;99770.34;2072907;28;20702;-64
2021/11/14 02:31:12;;;;;;;;;;;;;;;20.46;56.20;99768.66;2072369;28;20512;-64
2021/11/14 02:32:12;;;;;;;;;;;;;;;20.46;56.13;99768.66;2068118;28;19924;-63
2021/11/14 02:33:13;;;;;;;;;;;;;;;20.46;56.19;99767.78;2068462;28;20026;-64
2021/11/14 02:34:13;;;;;;;;;;;;;;;20.46;56.11;99768.66;2062390;28;19960;-64
2021/11/14 02:35:15;;;;;;;;;;;;;;;20.46;55.97;99763.16;2075709;28;20002;-64
2021/11/14 02:36:16;;;;;;;;;;;;;;;20.45;56.29;99758.69;2071811;28;19924;-64
2021/11/14 02:37:16;;;;;;;;;;;;;;;20.45;56.06;99761.44;2075908;28;19921;-63
2021/11/14 02:38:17;;;;;;;;;;;;;;;20.44;56.21;99759.75;2075739;28;19924;-63
2021/11/14 02:39:18;;;;;;;;;;;;;;;20.46;56.02;99751.38;2073479;28;20013;-64
2021/11/14 02:40:19;;;;;;;;;;;;;;;20.44;56.27;99754.25;2077231;28;19935;-64
2021/11/14 02:41:20;;;;;;;;;;;;;;;20.44;56.10;99751.53;2074345;28;19916;-64
2021/11/14 02:42:20;;;;;;;;;;;;;;;20.44;55.99;99759.75;2078068;28;19963;-64
2021/11/14 02:43:20;;;;;;;;;;;;;;;20.43;56.23;99749.81;2074681;28;20011;-64
2021/11/14 02:44:21;;;;;;;;;;;;;;;20.43;56.24;99752.56;2075512;28;20415;-64
2021/11/14 02:45:22;;;;;;;;;;;;;;;20.42;56.29;99756.31;2077412;28;19987;-65
2021/11/14 02:46:23;;;;;;;;;;;;;;;20.42;56.17;99750.81;2073734;28;21274;-64
2021/11/14 02:47:23;;;;;;;;;;;;;;;20.42;56.09;99756.31;2073390;28;19924;-64
2021/11/14 02:48:23;;;;;;;;;;;;;;;20.42;56.28;99756.31;2077055;28;19960;-62
2021/11/14 02:49:24;;;;;;;;;;;;;;;20.42;56.31;99750.81;2072311;28;20629;-62
2021/11/14 02:50:24;;;;;;;;;;;;;;;20.42;56.12;99749.97;2067534;28;19924;-62
2021/11/14 02:51:26;;;;;;;;;;;;;;;20.40;56.19;99747.41;2068438;28;19917;-63
2021/11/14 02:52:27;;;;;;;;;;;;;;;20.41;56.19;99745.53;2072633;28;19920;-63
2021/11/14 02:53:27;;;;;;;;;;;;;;;20.41;56.24;99743.66;2075114;28;19913;-63
2021/11/14 02:54:27;;;;;;;;;;;;;;;20.40;56.40;99741.91;2075187;28;19909;-63
2021/11/14 02:55:28;;;;;;;;;;;;;;;20.41;56.09;99737.31;2076187;28;19940;-63
2021/11/14 02:56:28;;;;;;;;;;;;;;;20.41;56.21;99738.19;2076199;28;20445;-63
2021/11/14 02:57:29;;;;;;;;;;;;;;;20.40;56.16;99736.44;2076977;28;19916;-63
2021/11/14 02:58:29;;;;;;;;;;;;;;;20.41;56.41;99742.81;2073987;28;20735;-63
2021/11/14 02:59:30;;;;;;;;;;;;;;;20.39;56.49;99734.75;2075494;28;20252;-62
2021/11/14 03:00:42;;;;;;;;;;;;;;;20.40;56.14;99741.91;2072762;28;19917;-63
2021/11/14 03:01:47;;;;;;;;;;;;;;;20.39;56.39;99734.75;2076655;28;19924;-64
2021/11/14 03:02:48;;;;;;;;;;;;;;;20.39;56.41;99726.53;2067065;28;20861;-64
2021/11/14 03:03:50;;;;;;;;;;;;;;;20.38;56.43;99727.53;2058046;28;19925;-63
2021/11/14 03:04:50;;;;;;;;;;;;;;;20.38;56.43;99732.16;2076234;28;19909;-63
2021/11/14 03:05:51;;;;;;;;;;;;;;;20.38;56.18;99727.53;2074535;28;19917;-63
2021/11/14 03:06:54;;;;;;;;;;;;;;;20.37;56.30;99725.00;2077666;28;19917;-63
2021/11/14 03:07:55;;;;;;;;;;;;;;;20.38;56.43;99733.00;2072872;28;19921;-63
2021/11/14 03:08:55;;;;;;;;;;;;;;;20.37;56.24;99734.06;2074426;28;19921;-63
2021/11/14 03:09:56;;;;;;;;;;;;;;;20.37;56.22;99733.19;2074127;28;19920;-63
2021/11/14 03:10:56;;;;;;;;;;;;;;;20.36;56.49;99735.09;2076627;28;19917;-63
2021/11/14 03:11:58;;;;;;;;;;;;;;;20.36;56.31;99737.81;2072085;28;19917;-63
2021/11/14 03:13:04;;;;;;;;;;;;;;;20.35;56.36;99738.81;2077427;28;19920;-63
2021/11/14 03:14:04;;;;;;;;;;;;;;;20.35;56.31;99734.19;2073143;28;20748;-64
2021/11/14 03:15:06;;;;;;;;;;;;;;;20.35;56.41;99738.81;2076404;28;20280;-63
2021/11/14 03:16:08;;;;;;;;;;;;;;;20.34;56.56;99735.25;2061480;28;20009;-63
2021/11/14 03:17:08;;;;;;;;;;;;;;;20.35;56.38;99736.09;2066433;28;20756;-63
2021/11/14 03:18:09;;;;;;;;;;;;;;;20.34;56.30;99734.38;2075924;28;20314;-63
2021/11/14 03:19:09;;;;;;;;;;;;;;;20.34;56.28;99734.38;2071975;28;19913;-63
2021/11/14 03:20:10;;;;;;;;;;;;;;;20.34;56.55;99737.97;2073695;28;19927;-63
2021/11/14 03:21:10;;;;;;;;;;;;;;;20.34;56.37;99726.19;2076948;28;19917;-63
2021/11/14 03:22:11;;;;;;;;;;;;;;;20.34;56.58;99734.38;2077043;28;19970;-63
2021/11/14 03:23:11;;;;;;;;;;;;;;;20.34;56.60;99731.66;2073287;28;20024;-64
2021/11/14 03:24:12;;;;;;;;;;;;;;;20.33;56.30;99732.66;2072772;28;19975;-63
2021/11/14 03:25:12;;;;;;;;;;;;;;;20.32;56.53;99733.69;2075518;28;19913;-63
2021/11/14 03:26:13;;;;;;;;;;;;;;;20.32;56.34;99722.75;2074579;28;19924;-63
2021/11/14 03:27:14;;;;;;;;;;;;;;;20.32;56.49;99733.69;2078598;28;19999;-63
2021/11/14 03:28:14;;;;;;;;;;;;;;;20.32;56.59;99728.22;2080242;28;20401;-63
2021/11/14 03:29:15;;;;;;;;;;;;;;;20.31;56.49;99732.00;2074773;28;19919;-63
2021/11/14 03:30:16;;;;;;;;;;;;;;;20.31;56.60;99726.53;2074143;28;19923;-63
2021/11/14 03:31:16;;;;;;;;;;;;;;;20.30;56.44;99724.78;2073505;28;19919;-63
2021/11/14 03:32:17;;;;;;;;;;;;;;;20.29;56.50;99728.56;2076498;28;20610;-63
2021/11/14 03:33:17;;;;;;;;;;;;;;;20.29;56.44;99723.09;2074093;28;19959;-63
2021/11/14 03:34:18;;;;;;;;;;;;;;;20.29;56.67;99725.81;2076740;28;19916;-63
2021/11/14 03:35:19;;;;;;;;;;;;;;;20.28;56.58;99727.69;2074014;28;19930;-64
2021/11/14 03:36:19;;;;;;;;;;;;;;;20.29;56.48;99725.81;2076776;28;19917;-64
2021/11/14 03:37:20;;;;;;;;;;;;;;;20.27;56.56;99722.41;2073872;28;19924;-64
2021/11/14 03:38:26;;;;;;;;;;;;;;;20.27;56.44;99725.13;2075620;28;19912;-64
2021/11/14 03:39:26;;;;;;;;;;;;;;;20.27;56.68;99722.41;2075733;28;20298;-64
2021/11/14 03:40:27;;;;;;;;;;;;;;;20.26;56.77;99727.03;2076564;28;19917;-63
2021/11/14 03:41:31;;;;;;;;;;;;;;;20.26;56.64;99728.88;2063110;28;20724;-64
2021/11/14 03:42:32;;;;;;;;;;;;;;;20.26;56.52;99723.41;2065315;28;19923;-64
2021/11/14 03:43:33;;;;;;;;;;;;;;;20.26;56.56;99723.41;2076808;28;19917;-64
2021/11/14 03:44:33;;;;;;;;;;;;;;;20.25;56.69;99722.53;2073811;28;19917;-64
2021/11/14 03:45:33;;;;;;;;;;;;;;;20.24;56.66;99726.31;2073046;28;19924;-65
2021/11/14 03:46:35;;;;;;;;;;;;;;;20.24;56.70;99725.47;2076422;28;20007;-64
2021/11/14 03:47:37;;;;;;;;;;;;;;;20.23;56.73;99721.84;2073061;28;19914;-64
2021/11/14 03:48:39;;;;;;;;;;;;;;;20.23;56.71;99731.94;2070307;28;20089;-64
2021/11/14 03:49:39;;;;;;;;;;;;;;;20.22;56.72;99732.97;2065146;28;19920;-64
2021/11/14 03:50:40;;;;;;;;;;;;;;;20.23;56.51;99734.69;2066139;28;20379;-64
2021/11/14 03:51:40;;;;;;;;;;;;;;;20.22;56.71;99730.25;2077004;28;19951;-64
2021/11/14 03:52:44;;;;;;;;;;;;;;;20.23;56.52;99729.22;2074156;28;20398;-64
2021/11/14 03:53:44;;;;;;;;;;;;;;;20.22;56.65;99733.84;2074622;28;19991;-64
2021/11/14 03:54:44;;;;;;;;;;;;;;;20.22;56.59;99733.84;2074424;28;19920;-64
2021/11/14 03:55:45;;;;;;;;;;;;;;;20.21;56.68;99731.25;2072805;28;19984;-64
2021/11/14 03:56:45;;;;;;;;;;;;;;;20.21;56.77;99734.00;2073976;28;20327;-64
2021/11/14 03:57:45;;;;;;;;;;;;;;;20.21;56.82;99732.13;2076354;28;19991;-65
2021/11/14 03:58:46;;;;;;;;;;;;;;;20.20;56.65;99727.66;2063877;28;20715;-65
2021/11/14 03:59:46;;;;;;;;;;;;;;;20.20;56.69;99737.75;2067285;28;20004;-65
2021/11/14 04:00:48;;;;;;;;;;;;;;;20.20;56.71;99737.75;2070440;28;19917;-70
2021/11/14 04:01:49;;;;;;;;;;;;;;;20.19;56.89;99733.31;2071559;28;20050;-70
2021/11/14 04:02:50;;;;;;;;;;;;;;;20.20;56.69;99735.03;2074159;28;19917;-70
2021/11/14 04:03:52;;;;;;;;;;;;;;;20.18;56.63;99737.91;2075377;28;19913;-70
2021/11/14 04:04:52;;;;;;;;;;;;;;;20.18;56.76;99742.53;2076664;28;19916;-70
2021/11/14 04:05:53;;;;;;;;;;;;;;;20.19;56.88;99738.81;2072581;28;19924;-70
2021/11/14 04:06:53;;;;;;;;;;;;;;;20.18;56.86;99742.53;2077011;28;20195;-70
2021/11/14 04:07:53;;;;;;;;;;;;;;;20.18;56.80;99732.44;2073953;28;20284;-71
2021/11/14 04:08:56;;;;;;;;;;;;;;;20.18;56.75;99737.06;2076346;28;19917;-71
2021/11/14 04:09:56;;;;;;;;;;;;;;;20.17;56.76;99735.38;2076235;28;19971;-71
2021/11/14 04:10:59;;;;;;;;;;;;;;;20.16;56.98;99733.63;2074767;28;19963;-69
2021/11/14 04:12:03;;;;;;;;;;;;;;;20.15;56.89;99732.78;2074252;28;19921;-70
2021/11/14 04:13:03;;;;;;;;;;;;;;;20.15;56.87;99731.94;2075720;28;20174;-70
2021/11/14 04:14:04;;;;;;;;;;;;;;;20.15;57.00;99734.66;2068808;28;20376;-70
2021/11/14 04:15:05;;;;;;;;;;;;;;;20.15;56.78;99729.19;2067020;28;20796;-71
2021/11/14 04:16:06;;;;;;;;;;;;;;;20.14;56.87;99736.56;2071303;28;20643;-71
2021/11/14 04:17:07;;;;;;;;;;;;;;;20.13;56.79;99735.69;2065571;28;19925;-71
2021/11/14 04:18:07;;;;;;;;;;;;;;;20.12;56.85;99733.97;2065650;28;19944;-70
2021/11/14 04:19:07;;;;;;;;;;;;;;;20.13;56.88;99734.81;2075690;28;19919;-70
2021/11/14 04:20:09;;;;;;;;;;;;;;;20.11;56.93;99732.28;2075653;28;19928;-71
2021/11/14 04:21:09;;;;;;;;;;;;;;;20.11;56.90;99732.28;2075088;28;19956;-69
2021/11/14 04:22:09;;;;;;;;;;;;;;;20.11;56.95;99728.66;2075253;28;19923;-68
2021/11/14 04:23:10;;;;;;;;;;;;;;;20.10;56.91;99724.22;2072755;28;20360;-69
2021/11/14 04:24:11;;;;;;;;;;;;;;;20.10;56.95;99725.06;2076195;28;19923;-69
2021/11/14 04:25:12;;;;;;;;;;;;;;;20.09;56.95;99728.00;2070461;28;20372;-69
2021/11/14 04:26:12;;;;;;;;;;;;;;;20.08;56.96;99727.09;2075266;28;19924;-69
2021/11/14 04:27:12;;;;;;;;;;;;;;;20.08;56.93;99729.84;2077444;28;19958;-69
2021/11/14 04:28:13;;;;;;;;;;;;;;;20.08;56.96;99729.84;2074472;28;20683;-69
2021/11/14 04:29:13;;;;;;;;;;;;;;;20.08;57.07;99726.25;2076893;28;19966;-69
2021/11/14 04:30:14;;;;;;;;;;;;;;;20.07;57.02;99728.16;2073917;28;20007;-69
2021/11/14 04:31:15;;;;;;;;;;;;;;;20.07;57.14;99728.16;2073831;28;20426;-69
2021/11/14 04:32:15;;;;;;;;;;;;;;;20.06;57.11;99726.44;2073598;28;20272;-69
2021/11/14 04:33:16;;;;;;;;;;;;;;;20.07;57.03;99735.50;2075990;28;20012;-69
2021/11/14 04:34:16;;;;;;;;;;;;;;;20.05;56.98;99732.91;2076328;28;19964;-69
2021/11/14 04:35:17;;;;;;;;;;;;;;;20.06;57.24;99734.66;2073063;28;19905;-70
2021/11/14 04:36:18;;;;;;;;;;;;;;;20.05;57.06;99727.44;2076384;28;19974;-69
2021/11/14 04:37:18;;;;;;;;;;;;;;;20.06;57.02;99728.28;2070450;28;19960;-69
2021/11/14 04:38:18;;;;;;;;;;;;;;;20.05;57.04;99730.19;2076009;28;19923;-69
2021/11/14 04:39:19;;;;;;;;;;;;;;;20.04;57.22;99731.22;2072006;28;19924;-69
2021/11/14 04:40:21;;;;;;;;;;;;;;;20.04;57.05;99731.22;2075462;28;19920;-70
2021/11/14 04:41:21;;;;;;;;;;;;;;;20.04;57.09;99728.47;2075533;28;19971;-69
2021/11/14 04:42:22;;;;;;;;;;;;;;;20.04;57.23;99736.69;2070959;28;19916;-70
2021/11/14 04:43:22;;;;;;;;;;;;;;;20.03;57.08;99732.22;2072866;28;19916;-69
2021/11/14 04:44:24;;;;;;;;;;;;;;;20.02;57.25;99722.31;2071834;28;19913;-69
2021/11/14 04:45:24;;;;;;;;;;;;;;;20.03;57.11;99732.22;2074589;28;19925;-70
2021/11/14 04:46:25;;;;;;;;;;;;;;;20.03;57.10;99734.09;2072349;28;20026;-69
2021/11/14 04:47:25;;;;;;;;;;;;;;;20.03;57.22;99728.63;2071392;28;19923;-70
2021/11/14 04:48:25;;;;;;;;;;;;;;;20.01;57.21;99726.06;2069265;28;20000;-69
2021/11/14 04:49:26;;;;;;;;;;;;;;;20.01;57.28;99730.66;2067589;28;20008;-69
2021/11/14 04:50:26;;;;;;;;;;;;;;;20.01;57.20;99731.53;2070207;28;20630;-70
2021/11/14 04:51:26;;;;;;;;;;;;;;;20.01;57.21;99734.25;2070555;28;20442;-69
2021/11/14 04:52:27;;;;;;;;;;;;;;;20.01;57.21;99733.41;2073214;28;19959;-70
2021/11/14 04:53:27;;;;;;;;;;;;;;;20.01;57.16;99733.41;2073898;28;21361;-69
2021/11/14 04:54:27;;;;;;;;;;;;;;;20.00;57.35;99734.44;2077846;28;19916;-70
2021/11/14 04:55:28;;;;;;;;;;;;;;;19.99;57.38;99728.13;2070215;28;19978;-69
2021/11/14 04:56:29;;;;;;;;;;;;;;;19.99;57.30;99728.13;2069553;28;19917;-69
2021/11/14 04:57:29;;;;;;;;;;;;;;;19.98;57.39;99729.13;2076107;28;19994;-69
2021/11/14 04:58:30;;;;;;;;;;;;;;;19.98;57.34;99729.13;2065378;28;19917;-69
2021/11/14 04:59:30;;;;;;;;;;;;;;;19.98;57.36;99726.38;2067777;28;20758;-69
2021/11/14 05:00:33;;;;;;;;;;;;;;;19.97;57.12;99721.94;2072947;28;20194;-70
2021/11/14 05:01:33;;;;;;;;;;;;;;;19.97;57.22;99727.41;2071008;28;20386;-70
2021/11/14 05:02:34;;;;;;;;;;;;;;;19.97;57.24;99724.69;2072689;28;19917;-70
2021/11/14 05:03:34;;;;;;;;;;;;;;;19.96;57.22;99728.44;2073885;28;19991;-70
2021/11/14 05:04:34;;;;;;;;;;;;;;;19.96;57.27;99720.22;2076098;28;19996;-69
2021/11/14 05:05:36;;;;;;;;;;;;;;;19.96;57.37;99722.09;2072283;28;19931;-70
2021/11/14 05:06:37;;;;;;;;;;;;;;;19.95;57.35;99721.25;2073067;28;19916;-70
2021/11/14 05:07:37;;;;;;;;;;;;;;;19.95;57.37;99724.00;2076245;28;19916;-70
2021/11/14 05:08:38;;;;;;;;;;;;;;;19.95;57.34;99718.50;2076300;28;19978;-69
2021/11/14 05:09:38;;;;;;;;;;;;;;;19.95;57.26;99725.88;2074916;28;19935;-70
2021/11/14 05:10:39;;;;;;;;;;;;;;;19.93;57.36;99723.28;2071187;28;20311;-70
2021/11/14 05:11:39;;;;;;;;;;;;;;;19.92;57.24;99716.97;2063584;28;19910;-70
2021/11/14 05:12:40;;;;;;;;;;;;;;;19.93;57.41;99717.81;2066232;28;20036;-70
2021/11/14 05:13:40;;;;;;;;;;;;;;;19.92;57.23;99714.22;2077430;28;19924;-69
2021/11/14 05:14:40;;;;;;;;;;;;;;;19.92;57.21;99721.59;2066561;28;20443;-70
2021/11/14 05:15:41;;;;;;;;;;;;;;;19.91;57.38;99726.19;2063757;28;19979;-70
2021/11/14 05:16:42;;;;;;;;;;;;;;;19.91;57.36;99719.84;2078989;28;19924;-70
2021/11/14 05:17:42;;;;;;;;;;;;;;;19.91;57.33;99725.31;2074333;28;19917;-70